sensor_id;sensor_type;location;lat;lon;timestamp;P1;durP1;ratioP1;P2;durP2;ratioP2
20966;SDS011;10642;50.682;18.510;2023-02-04T00:01:17;6.90;;;2.33;;
20966;SDS011;10642;50.682;18.510;2023-02-04T00:03:44;7.97;;;3.10;;
20966;SDS011;10642;50.682;18.510;2023-02-04T00:06:11;7.70;;;2.53;;
20966;SDS011;10642;50.682;18.510;2023-02-04T00:08:38;7.53;;;2.57;;
20966;SDS011;10642;50.682;18.510;2023-02-04T00:11:05;8.03;;;1.93;;
20966;SDS011;10642;50.682;18.510;2023-02-04T00:13:32;4.60;;;1.63;;
20966;SDS011;10642;50.682;18.510;2023-02-04T00:15:58;6.13;;;2.40;;
20966;SDS011;10642;50.682;18.510;2023-02-04T00:18:26;6.57;;;2.33;;
20966;SDS011;10642;50.682;18.510;2023-02-04T00:20:53;7.97;;;2.30;;
20966;SDS011;10642;50.682;18.510;2023-02-04T00:23:20;7.77;;;2.70;;
20966;SDS011;10642;50.682;18.510;2023-02-04T00:25:47;5.07;;;1.70;;
20966;SDS011;10642;50.682;18.510;2023-02-04T00:28:14;5.63;;;1.70;;
20966;SDS011;10642;50.682;18.510;2023-02-04T00:30:41;5.80;;;1.73;;
20966;SDS011;10642;50.682;18.510;2023-02-04T00:33:08;5.70;;;2.07;;
20966;SDS011;10642;50.682;18.510;2023-02-04T00:35:34;5.50;;;1.60;;
20966;SDS011;10642;50.682;18.510;2023-02-04T00:38:03;9.40;;;1.93;;
20966;SDS011;10642;50.682;18.510;2023-02-04T00:40:30;7.40;;;2.17;;
20966;SDS011;10642;50.682;18.510;2023-02-04T00:42:57;3.43;;;1.40;;
20966;SDS011;10642;50.682;18.510;2023-02-04T00:45:24;3.63;;;1.53;;
20966;SDS011;10642;50.682;18.510;2023-02-04T00:47:51;4.50;;;2.07;;
20966;SDS011;10642;50.682;18.510;2023-02-04T00:50:18;4.00;;;2.33;;
20966;SDS011;10642;50.682;18.510;2023-02-04T00:52:45;5.03;;;2.40;;
20966;SDS011;10642;50.682;18.510;2023-02-04T00:55:12;4.33;;;2.60;;
20966;SDS011;10642;50.682;18.510;2023-02-04T00:57:42;5.03;;;2.93;;
20966;SDS011;10642;50.682;18.510;2023-02-04T01:00:09;5.57;;;2.40;;
20966;SDS011;10642;50.682;18.510;2023-02-04T01:02:36;5.40;;;2.00;;
20966;SDS011;10642;50.682;18.510;2023-02-04T01:05:03;3.57;;;1.60;;
20966;SDS011;10642;50.682;18.510;2023-02-04T01:07:30;0.10;;;0.10;;
20966;SDS011;10642;50.682;18.510;2023-02-04T01:09:57;2.87;;;0.30;;
20966;SDS011;10642;50.682;18.510;2023-02-04T01:12:24;0.33;;;0.33;;
20966;SDS011;10642;50.682;18.510;2023-02-04T01:14:53;0.03;;;0.03;;
20966;SDS011;10642;50.682;18.510;2023-02-04T01:17:20;0.10;;;0.10;;
20966;SDS011;10642;50.682;18.510;2023-02-04T01:19:47;0.00;;;0.00;;
20966;SDS011;10642;50.682;18.510;2023-02-04T01:22:13;0.10;;;0.10;;
20966;SDS011;10642;50.682;18.510;2023-02-04T01:24:40;0.10;;;0.10;;
20966;SDS011;10642;50.682;18.510;2023-02-04T01:27:26;0.17;;;0.17;;
20966;SDS011;10642;50.682;18.510;2023-02-04T01:29:53;0.10;;;0.10;;
20966;SDS011;10642;50.682;18.510;2023-02-04T01:32:19;0.03;;;0.03;;
20966;SDS011;10642;50.682;18.510;2023-02-04T01:34:46;0.00;;;0.00;;
20966;SDS011;10642;50.682;18.510;2023-02-04T01:37:13;0.20;;;0.20;;
20966;SDS011;10642;50.682;18.510;2023-02-04T01:39:40;1.07;;;0.87;;
20966;SDS011;10642;50.682;18.510;2023-02-04T01:42:07;0.10;;;0.10;;
20966;SDS011;10642;50.682;18.510;2023-02-04T01:44:34;0.10;;;0.10;;
20966;SDS011;10642;50.682;18.510;2023-02-04T01:47:01;0.70;;;0.53;;
20966;SDS011;10642;50.682;18.510;2023-02-04T01:49:28;0.40;;;0.40;;
20966;SDS011;10642;50.682;18.510;2023-02-04T01:51:55;0.10;;;0.10;;
20966;SDS011;10642;50.682;18.510;2023-02-04T01:54:22;0.10;;;0.10;;
20966;SDS011;10642;50.682;18.510;2023-02-04T01:56:49;0.20;;;0.20;;
20966;SDS011;10642;50.682;18.510;2023-02-04T01:59:17;0.23;;;0.23;;
20966;SDS011;10642;50.682;18.510;2023-02-04T02:01:46;0.10;;;0.10;;
20966;SDS011;10642;50.682;18.510;2023-02-04T02:04:17;0.00;;;0.00;;
20966;SDS011;10642;50.682;18.510;2023-02-04T02:06:47;0.10;;;0.10;;
20966;SDS011;10642;50.682;18.510;2023-02-04T02:09:15;0.00;;;0.00;;
20966;SDS011;10642;50.682;18.510;2023-02-04T02:11:42;0.10;;;0.10;;
20966;SDS011;10642;50.682;18.510;2023-02-04T02:14:09;0.00;;;0.00;;
20966;SDS011;10642;50.682;18.510;2023-02-04T02:16:36;0.00;;;0.00;;
20966;SDS011;10642;50.682;18.510;2023-02-04T02:19:04;0.47;;;0.20;;
20966;SDS011;10642;50.682;18.510;2023-02-04T02:26:52;0.20;;;0.20;;
20966;SDS011;10642;50.682;18.510;2023-02-04T02:29:19;0.10;;;0.10;;
20966;SDS011;10642;50.682;18.510;2023-02-04T02:31:47;0.73;;;0.23;;
20966;SDS011;10642;50.682;18.510;2023-02-04T02:34:14;0.20;;;0.20;;
20966;SDS011;10642;50.682;18.510;2023-02-04T02:36:43;0.27;;;0.27;;
20966;SDS011;10642;50.682;18.510;2023-02-04T02:39:10;0.07;;;0.07;;
20966;SDS011;10642;50.682;18.510;2023-02-04T02:41:38;0.07;;;0.07;;
20966;SDS011;10642;50.682;18.510;2023-02-04T02:44:05;0.20;;;0.20;;
20966;SDS011;10642;50.682;18.510;2023-02-04T02:46:33;0.00;;;0.00;;
20966;SDS011;10642;50.682;18.510;2023-02-04T02:49:00;0.10;;;0.10;;
20966;SDS011;10642;50.682;18.510;2023-02-04T02:51:28;0.00;;;0.00;;
20966;SDS011;10642;50.682;18.510;2023-02-04T02:53:56;0.20;;;0.10;;
20966;SDS011;10642;50.682;18.510;2023-02-04T02:56:24;0.10;;;0.10;;
20966;SDS011;10642;50.682;18.510;2023-02-04T02:58:51;0.10;;;0.10;;
20966;SDS011;10642;50.682;18.510;2023-02-04T03:01:18;0.43;;;0.40;;
20966;SDS011;10642;50.682;18.510;2023-02-04T03:03:49;0.10;;;0.10;;
20966;SDS011;10642;50.682;18.510;2023-02-04T03:06:21;0.20;;;0.20;;
20966;SDS011;10642;50.682;18.510;2023-02-04T03:08:51;2.70;;;1.17;;
20966;SDS011;10642;50.682;18.510;2023-02-04T03:11:21;1.63;;;1.07;;
20966;SDS011;10642;50.682;18.510;2023-02-04T03:13:48;0.80;;;0.80;;
20966;SDS011;10642;50.682;18.510;2023-02-04T03:16:16;0.70;;;0.70;;
20966;SDS011;10642;50.682;18.510;2023-02-04T03:18:43;1.23;;;1.13;;
20966;SDS011;10642;50.682;18.510;2023-02-04T03:21:10;2.83;;;1.37;;
20966;SDS011;10642;50.682;18.510;2023-02-04T03:23:38;1.80;;;0.87;;
20966;SDS011;10642;50.682;18.510;2023-02-04T03:26:05;2.23;;;1.27;;
20966;SDS011;10642;50.682;18.510;2023-02-04T03:28:32;1.37;;;1.03;;
20966;SDS011;10642;50.682;18.510;2023-02-04T03:30:59;1.30;;;1.00;;
20966;SDS011;10642;50.682;18.510;2023-02-04T03:33:27;1.40;;;0.80;;
20966;SDS011;10642;50.682;18.510;2023-02-04T03:35:57;1.30;;;0.87;;
20966;SDS011;10642;50.682;18.510;2023-02-04T03:38:24;2.97;;;1.70;;
20966;SDS011;10642;50.682;18.510;2023-02-04T03:40:51;1.30;;;0.50;;
20966;SDS011;10642;50.682;18.510;2023-02-04T03:43:18;1.13;;;1.03;;
20966;SDS011;10642;50.682;18.510;2023-02-04T03:45:45;0.53;;;0.37;;
20966;SDS011;10642;50.682;18.510;2023-02-04T03:48:12;0.30;;;0.30;;
20966;SDS011;10642;50.682;18.510;2023-02-04T03:50:39;1.40;;;0.90;;
20966;SDS011;10642;50.682;18.510;2023-02-04T03:53:06;2.20;;;0.53;;
20966;SDS011;10642;50.682;18.510;2023-02-04T03:55:33;0.50;;;0.50;;
20966;SDS011;10642;50.682;18.510;2023-02-04T03:58:02;0.30;;;0.30;;
20966;SDS011;10642;50.682;18.510;2023-02-04T04:00:29;2.17;;;1.30;;
20966;SDS011;10642;50.682;18.510;2023-02-04T04:02:58;0.80;;;0.53;;
20966;SDS011;10642;50.682;18.510;2023-02-04T04:05:25;1.07;;;1.03;;
20966;SDS011;10642;50.682;18.510;2023-02-04T04:07:53;1.60;;;0.63;;
20966;SDS011;10642;50.682;18.510;2023-02-04T04:10:20;1.00;;;0.60;;
20966;SDS011;10642;50.682;18.510;2023-02-04T04:12:47;0.83;;;0.57;;
20966;SDS011;10642;50.682;18.510;2023-02-04T04:15:14;8.93;;;5.93;;
20966;SDS011;10642;50.682;18.510;2023-02-04T04:17:40;9.47;;;6.17;;
20966;SDS011;10642;50.682;18.510;2023-02-04T04:20:07;9.13;;;6.37;;
20966;SDS011;10642;50.682;18.510;2023-02-04T04:22:34;10.17;;;6.03;;
20966;SDS011;10642;50.682;18.510;2023-02-04T04:25:01;9.47;;;5.80;;
20966;SDS011;10642;50.682;18.510;2023-02-04T04:27:28;10.33;;;5.97;;
20966;SDS011;10642;50.682;18.510;2023-02-04T04:29:55;9.90;;;7.60;;
20966;SDS011;10642;50.682;18.510;2023-02-04T04:32:22;12.37;;;7.43;;
20966;SDS011;10642;50.682;18.510;2023-02-04T04:34:49;12.93;;;8.40;;
20966;SDS011;10642;50.682;18.510;2023-02-04T04:37:16;11.27;;;6.77;;
20966;SDS011;10642;50.682;18.510;2023-02-04T04:39:43;10.23;;;7.17;;
20966;SDS011;10642;50.682;18.510;2023-02-04T04:42:10;10.43;;;7.90;;
20966;SDS011;10642;50.682;18.510;2023-02-04T04:44:37;9.67;;;6.57;;
20966;SDS011;10642;50.682;18.510;2023-02-04T04:47:03;9.43;;;6.83;;
20966;SDS011;10642;50.682;18.510;2023-02-04T04:49:30;9.97;;;6.97;;
20966;SDS011;10642;50.682;18.510;2023-02-04T04:51:57;9.87;;;7.50;;
20966;SDS011;10642;50.682;18.510;2023-02-04T04:54:24;12.07;;;7.80;;
20966;SDS011;10642;50.682;18.510;2023-02-04T04:56:51;19.60;;;10.07;;
20966;SDS011;10642;50.682;18.510;2023-02-04T04:59:18;16.57;;;11.10;;
20966;SDS011;10642;50.682;18.510;2023-02-04T05:01:45;13.53;;;8.10;;
20966;SDS011;10642;50.682;18.510;2023-02-04T05:04:12;15.53;;;9.50;;
20966;SDS011;10642;50.682;18.510;2023-02-04T05:06:39;14.73;;;10.37;;
20966;SDS011;10642;50.682;18.510;2023-02-04T05:09:06;12.80;;;8.50;;
20966;SDS011;10642;50.682;18.510;2023-02-04T05:11:32;13.60;;;9.70;;
20966;SDS011;10642;50.682;18.510;2023-02-04T05:13:59;12.17;;;9.20;;
20966;SDS011;10642;50.682;18.510;2023-02-04T05:16:26;12.60;;;9.73;;
20966;SDS011;10642;50.682;18.510;2023-02-04T05:18:53;12.60;;;7.80;;
20966;SDS011;10642;50.682;18.510;2023-02-04T05:21:20;12.57;;;8.03;;
20966;SDS011;10642;50.682;18.510;2023-02-04T05:23:47;11.70;;;8.00;;
20966;SDS011;10642;50.682;18.510;2023-02-04T05:26:14;12.20;;;8.30;;
20966;SDS011;10642;50.682;18.510;2023-02-04T05:28:55;10.93;;;7.73;;
20966;SDS011;10642;50.682;18.510;2023-02-04T05:31:22;10.73;;;7.90;;
20966;SDS011;10642;50.682;18.510;2023-02-04T05:33:49;12.30;;;7.67;;
20966;SDS011;10642;50.682;18.510;2023-02-04T05:36:16;14.67;;;8.93;;
20966;SDS011;10642;50.682;18.510;2023-02-04T05:38:43;11.33;;;8.27;;
20966;SDS011;10642;50.682;18.510;2023-02-04T05:41:10;14.00;;;8.10;;
20966;SDS011;10642;50.682;18.510;2023-02-04T05:43:37;11.97;;;9.00;;
20966;SDS011;10642;50.682;18.510;2023-02-04T05:46:04;11.63;;;7.23;;
20966;SDS011;10642;50.682;18.510;2023-02-04T05:48:31;10.77;;;8.53;;
20966;SDS011;10642;50.682;18.510;2023-02-04T05:50:58;11.53;;;9.23;;
20966;SDS011;10642;50.682;18.510;2023-02-04T05:53:25;12.73;;;8.07;;
20966;SDS011;10642;50.682;18.510;2023-02-04T05:55:52;13.03;;;8.83;;
20966;SDS011;10642;50.682;18.510;2023-02-04T05:58:18;11.03;;;8.07;;
20966;SDS011;10642;50.682;18.510;2023-02-04T06:00:45;12.40;;;9.03;;
20966;SDS011;10642;50.682;18.510;2023-02-04T06:03:12;13.17;;;8.40;;
20966;SDS011;10642;50.682;18.510;2023-02-04T06:05:40;11.17;;;8.10;;
20966;SDS011;10642;50.682;18.510;2023-02-04T06:08:07;11.70;;;10.03;;
20966;SDS011;10642;50.682;18.510;2023-02-04T06:10:33;13.63;;;9.43;;
20966;SDS011;10642;50.682;18.510;2023-02-04T06:13:00;12.37;;;10.07;;
20966;SDS011;10642;50.682;18.510;2023-02-04T06:15:27;15.57;;;10.90;;
20966;SDS011;10642;50.682;18.510;2023-02-04T06:17:54;14.87;;;9.97;;
20966;SDS011;10642;50.682;18.510;2023-02-04T06:20:21;20.97;;;10.57;;
20966;SDS011;10642;50.682;18.510;2023-02-04T06:22:48;16.30;;;11.23;;
20966;SDS011;10642;50.682;18.510;2023-02-04T06:25:17;14.93;;;10.50;;
20966;SDS011;10642;50.682;18.510;2023-02-04T06:27:44;14.70;;;9.77;;
20966;SDS011;10642;50.682;18.510;2023-02-04T06:30:11;13.70;;;11.30;;
20966;SDS011;10642;50.682;18.510;2023-02-04T06:32:38;13.70;;;10.57;;
20966;SDS011;10642;50.682;18.510;2023-02-04T06:35:06;14.83;;;11.20;;
20966;SDS011;10642;50.682;18.510;2023-02-04T06:37:32;12.40;;;9.57;;
20966;SDS011;10642;50.682;18.510;2023-02-04T06:39:59;13.87;;;10.27;;
20966;SDS011;10642;50.682;18.510;2023-02-04T06:42:26;11.30;;;7.70;;
20966;SDS011;10642;50.682;18.510;2023-02-04T06:44:53;12.47;;;9.10;;
20966;SDS011;10642;50.682;18.510;2023-02-04T06:47:21;13.63;;;10.07;;
20966;SDS011;10642;50.682;18.510;2023-02-04T06:49:48;13.37;;;8.57;;
20966;SDS011;10642;50.682;18.510;2023-02-04T06:52:15;16.33;;;9.90;;
20966;SDS011;10642;50.682;18.510;2023-02-04T06:54:41;11.57;;;9.17;;
20966;SDS011;10642;50.682;18.510;2023-02-04T06:57:08;14.83;;;10.00;;
20966;SDS011;10642;50.682;18.510;2023-02-04T06:59:36;14.53;;;10.30;;
20966;SDS011;10642;50.682;18.510;2023-02-04T07:02:03;17.67;;;10.67;;
20966;SDS011;10642;50.682;18.510;2023-02-04T07:04:30;12.80;;;9.23;;
20966;SDS011;10642;50.682;18.510;2023-02-04T07:06:57;14.17;;;11.47;;
20966;SDS011;10642;50.682;18.510;2023-02-04T07:09:24;17.50;;;10.93;;
20966;SDS011;10642;50.682;18.510;2023-02-04T07:11:50;16.37;;;11.37;;
20966;SDS011;10642;50.682;18.510;2023-02-04T07:14:17;16.03;;;11.37;;
20966;SDS011;10642;50.682;18.510;2023-02-04T07:16:44;16.73;;;11.40;;
20966;SDS011;10642;50.682;18.510;2023-02-04T07:19:11;19.93;;;13.13;;
20966;SDS011;10642;50.682;18.510;2023-02-04T07:21:38;20.07;;;11.93;;
20966;SDS011;10642;50.682;18.510;2023-02-04T07:24:05;19.77;;;10.70;;
20966;SDS011;10642;50.682;18.510;2023-02-04T07:26:32;18.30;;;12.07;;
20966;SDS011;10642;50.682;18.510;2023-02-04T07:28:59;16.60;;;11.03;;
20966;SDS011;10642;50.682;18.510;2023-02-04T07:31:26;18.13;;;12.17;;
20966;SDS011;10642;50.682;18.510;2023-02-04T07:33:53;14.47;;;10.20;;
20966;SDS011;10642;50.682;18.510;2023-02-04T07:36:20;22.33;;;12.03;;
20966;SDS011;10642;50.682;18.510;2023-02-04T07:38:47;18.40;;;11.67;;
20966;SDS011;10642;50.682;18.510;2023-02-04T07:41:14;18.00;;;12.07;;
20966;SDS011;10642;50.682;18.510;2023-02-04T07:43:41;13.57;;;9.77;;
20966;SDS011;10642;50.682;18.510;2023-02-04T07:46:08;15.90;;;11.20;;
20966;SDS011;10642;50.682;18.510;2023-02-04T07:48:35;17.20;;;11.77;;
20966;SDS011;10642;50.682;18.510;2023-02-04T07:51:02;18.97;;;11.27;;
20966;SDS011;10642;50.682;18.510;2023-02-04T07:53:29;14.83;;;11.00;;
20966;SDS011;10642;50.682;18.510;2023-02-04T07:55:56;15.57;;;10.80;;
20966;SDS011;10642;50.682;18.510;2023-02-04T07:58:22;16.70;;;10.87;;
20966;SDS011;10642;50.682;18.510;2023-02-04T08:00:49;17.40;;;11.40;;
20966;SDS011;10642;50.682;18.510;2023-02-04T08:03:16;15.77;;;11.03;;
20966;SDS011;10642;50.682;18.510;2023-02-04T08:05:43;14.63;;;10.53;;
20966;SDS011;10642;50.682;18.510;2023-02-04T08:08:10;16.53;;;11.93;;
20966;SDS011;10642;50.682;18.510;2023-02-04T08:10:37;14.63;;;10.80;;
20966;SDS011;10642;50.682;18.510;2023-02-04T08:13:04;15.70;;;11.70;;
20966;SDS011;10642;50.682;18.510;2023-02-04T08:15:30;18.47;;;11.37;;
20966;SDS011;10642;50.682;18.510;2023-02-04T08:17:58;14.30;;;9.93;;
20966;SDS011;10642;50.682;18.510;2023-02-04T08:20:25;16.00;;;10.57;;
20966;SDS011;10642;50.682;18.510;2023-02-04T08:22:52;16.80;;;11.20;;
20966;SDS011;10642;50.682;18.510;2023-02-04T08:25:19;17.70;;;12.33;;
20966;SDS011;10642;50.682;18.510;2023-02-04T08:27:46;17.00;;;12.30;;
20966;SDS011;10642;50.682;18.510;2023-02-04T08:30:13;14.70;;;10.03;;
20966;SDS011;10642;50.682;18.510;2023-02-04T08:32:40;17.77;;;10.90;;
20966;SDS011;10642;50.682;18.510;2023-02-04T08:35:07;17.17;;;11.70;;
20966;SDS011;10642;50.682;18.510;2023-02-04T08:37:34;24.10;;;13.90;;
20966;SDS011;10642;50.682;18.510;2023-02-04T08:40:00;14.20;;;10.03;;
20966;SDS011;10642;50.682;18.510;2023-02-04T08:42:27;15.67;;;9.50;;
20966;SDS011;10642;50.682;18.510;2023-02-04T08:44:54;13.33;;;9.20;;
20966;SDS011;10642;50.682;18.510;2023-02-04T08:47:21;15.00;;;9.87;;
20966;SDS011;10642;50.682;18.510;2023-02-04T08:49:48;12.20;;;8.03;;
20966;SDS011;10642;50.682;18.510;2023-02-04T08:52:15;14.00;;;9.60;;
20966;SDS011;10642;50.682;18.510;2023-02-04T08:54:42;14.83;;;9.20;;
20966;SDS011;10642;50.682;18.510;2023-02-04T08:57:09;13.73;;;8.40;;
20966;SDS011;10642;50.682;18.510;2023-02-04T08:59:35;11.03;;;7.53;;
20966;SDS011;10642;50.682;18.510;2023-02-04T09:02:02;13.27;;;8.37;;
20966;SDS011;10642;50.682;18.510;2023-02-04T09:04:29;11.43;;;7.80;;
20966;SDS011;10642;50.682;18.510;2023-02-04T09:06:56;12.63;;;7.67;;
20966;SDS011;10642;50.682;18.510;2023-02-04T09:09:23;11.70;;;8.03;;
20966;SDS011;10642;50.682;18.510;2023-02-04T09:11:51;12.67;;;7.57;;
20966;SDS011;10642;50.682;18.510;2023-02-04T09:14:18;13.30;;;6.40;;
20966;SDS011;10642;50.682;18.510;2023-02-04T09:16:45;15.57;;;8.90;;
20966;SDS011;10642;50.682;18.510;2023-02-04T09:19:14;11.70;;;7.70;;
20966;SDS011;10642;50.682;18.510;2023-02-04T09:21:42;11.97;;;7.40;;
20966;SDS011;10642;50.682;18.510;2023-02-04T09:24:08;12.27;;;8.30;;
20966;SDS011;10642;50.682;18.510;2023-02-04T09:26:35;14.63;;;8.63;;
20966;SDS011;10642;50.682;18.510;2023-02-04T09:29:02;12.80;;;7.90;;
20966;SDS011;10642;50.682;18.510;2023-02-04T09:31:29;14.17;;;9.10;;
20966;SDS011;10642;50.682;18.510;2023-02-04T09:33:56;21.87;;;12.73;;
20966;SDS011;10642;50.682;18.510;2023-02-04T09:36:23;14.00;;;7.77;;
20966;SDS011;10642;50.682;18.510;2023-02-04T09:38:54;12.90;;;7.20;;
20966;SDS011;10642;50.682;18.510;2023-02-04T09:41:21;11.80;;;7.47;;
20966;SDS011;10642;50.682;18.510;2023-02-04T09:43:48;11.97;;;6.60;;
20966;SDS011;10642;50.682;18.510;2023-02-04T09:46:20;10.47;;;6.80;;
20966;SDS011;10642;50.682;18.510;2023-02-04T09:48:47;9.43;;;6.47;;
20966;SDS011;10642;50.682;18.510;2023-02-04T09:51:16;16.63;;;10.40;;
20966;SDS011;10642;50.682;18.510;2023-02-04T09:53:44;13.87;;;7.67;;
20966;SDS011;10642;50.682;18.510;2023-02-04T09:56:11;27.87;;;15.23;;
20966;SDS011;10642;50.682;18.510;2023-02-04T09:58:39;10.93;;;5.80;;
20966;SDS011;10642;50.682;18.510;2023-02-04T10:01:14;12.70;;;8.50;;
20966;SDS011;10642;50.682;18.510;2023-02-04T10:03:42;10.40;;;6.70;;
20966;SDS011;10642;50.682;18.510;2023-02-04T10:06:17;8.60;;;5.37;;
20966;SDS011;10642;50.682;18.510;2023-02-04T10:08:44;10.30;;;6.23;;
20966;SDS011;10642;50.682;18.510;2023-02-04T10:11:12;8.10;;;5.20;;
20966;SDS011;10642;50.682;18.510;2023-02-04T10:13:44;8.33;;;5.07;;
20966;SDS011;10642;50.682;18.510;2023-02-04T10:16:13;9.10;;;5.33;;
20966;SDS011;10642;50.682;18.510;2023-02-04T10:18:40;6.77;;;4.50;;
20966;SDS011;10642;50.682;18.510;2023-02-04T10:23:41;9.70;;;5.03;;
20966;SDS011;10642;50.682;18.510;2023-02-04T10:26:10;9.10;;;5.20;;
20966;SDS011;10642;50.682;18.510;2023-02-04T10:28:37;11.60;;;6.40;;
20966;SDS011;10642;50.682;18.510;2023-02-04T10:31:06;9.10;;;5.60;;
20966;SDS011;10642;50.682;18.510;2023-02-04T10:33:35;12.33;;;6.80;;
20966;SDS011;10642;50.682;18.510;2023-02-04T10:36:04;13.43;;;6.40;;
20966;SDS011;10642;50.682;18.510;2023-02-04T10:38:31;10.37;;;5.27;;
20966;SDS011;10642;50.682;18.510;2023-02-04T10:41:02;10.13;;;5.60;;
20966;SDS011;10642;50.682;18.510;2023-02-04T10:43:29;10.90;;;6.30;;
20966;SDS011;10642;50.682;18.510;2023-02-04T10:46:02;10.47;;;5.00;;
20966;SDS011;10642;50.682;18.510;2023-02-04T10:48:37;12.33;;;5.23;;
20966;SDS011;10642;50.682;18.510;2023-02-04T10:51:04;10.77;;;5.97;;
20966;SDS011;10642;50.682;18.510;2023-02-04T10:53:31;9.30;;;5.23;;
20966;SDS011;10642;50.682;18.510;2023-02-04T10:56:20;15.17;;;8.80;;
20966;SDS011;10642;50.682;18.510;2023-02-04T10:58:47;12.27;;;6.50;;
20966;SDS011;10642;50.682;18.510;2023-02-04T11:01:15;10.40;;;5.87;;
20966;SDS011;10642;50.682;18.510;2023-02-04T11:03:42;14.07;;;5.63;;
20966;SDS011;10642;50.682;18.510;2023-02-04T11:06:15;10.47;;;5.13;;
20966;SDS011;10642;50.682;18.510;2023-02-04T11:08:43;9.07;;;4.97;;
20966;SDS011;10642;50.682;18.510;2023-02-04T11:11:21;13.53;;;5.40;;
20966;SDS011;10642;50.682;18.510;2023-02-04T11:21:51;9.90;;;5.70;;
20966;SDS011;10642;50.682;18.510;2023-02-04T11:24:20;9.37;;;4.90;;
20966;SDS011;10642;50.682;18.510;2023-02-04T11:26:48;9.33;;;4.80;;
20966;SDS011;10642;50.682;18.510;2023-02-04T11:29:24;10.00;;;5.17;;
20966;SDS011;10642;50.682;18.510;2023-02-04T11:32:03;9.93;;;4.53;;
20966;SDS011;10642;50.682;18.510;2023-02-04T11:34:30;9.53;;;3.87;;
20966;SDS011;10642;50.682;18.510;2023-02-04T11:39:30;8.73;;;4.80;;
20966;SDS011;10642;50.682;18.510;2023-02-04T11:41:58;10.20;;;5.20;;
20966;SDS011;10642;50.682;18.510;2023-02-04T11:44:25;10.57;;;4.47;;
20966;SDS011;10642;50.682;18.510;2023-02-04T11:46:53;10.33;;;5.50;;
20966;SDS011;10642;50.682;18.510;2023-02-04T11:49:22;9.77;;;3.73;;
20966;SDS011;10642;50.682;18.510;2023-02-04T11:51:50;5.80;;;3.50;;
20966;SDS011;10642;50.682;18.510;2023-02-04T11:54:17;24.53;;;9.53;;
20966;SDS011;10642;50.682;18.510;2023-02-04T11:56:45;21.70;;;8.20;;
20966;SDS011;10642;50.682;18.510;2023-02-04T11:59:12;26.77;;;12.80;;
20966;SDS011;10642;50.682;18.510;2023-02-04T12:01:40;16.40;;;8.47;;
20966;SDS011;10642;50.682;18.510;2023-02-04T12:04:18;9.10;;;3.63;;
20966;SDS011;10642;50.682;18.510;2023-02-04T12:06:55;8.83;;;3.73;;
20966;SDS011;10642;50.682;18.510;2023-02-04T12:09:23;6.53;;;3.90;;
20966;SDS011;10642;50.682;18.510;2023-02-04T12:11:51;14.20;;;4.87;;
20966;SDS011;10642;50.682;18.510;2023-02-04T12:14:18;14.97;;;5.97;;
20966;SDS011;10642;50.682;18.510;2023-02-04T12:19:12;8.10;;;3.67;;
20966;SDS011;10642;50.682;18.510;2023-02-04T12:21:39;11.20;;;5.20;;
20966;SDS011;10642;50.682;18.510;2023-02-04T12:24:06;7.23;;;3.53;;
20966;SDS011;10642;50.682;18.510;2023-02-04T12:26:33;10.13;;;5.63;;
20966;SDS011;10642;50.682;18.510;2023-02-04T12:29:00;7.90;;;4.30;;
20966;SDS011;10642;50.682;18.510;2023-02-04T12:31:29;8.87;;;4.40;;
20966;SDS011;10642;50.682;18.510;2023-02-04T12:33:56;8.87;;;3.37;;
20966;SDS011;10642;50.682;18.510;2023-02-04T12:36:23;7.73;;;3.90;;
20966;SDS011;10642;50.682;18.510;2023-02-04T12:38:50;7.47;;;3.50;;
20966;SDS011;10642;50.682;18.510;2023-02-04T12:41:17;7.53;;;3.77;;
20966;SDS011;10642;50.682;18.510;2023-02-04T12:43:45;15.57;;;5.97;;
20966;SDS011;10642;50.682;18.510;2023-02-04T12:46:16;7.67;;;3.80;;
20966;SDS011;10642;50.682;18.510;2023-02-04T12:48:43;7.57;;;4.47;;
20966;SDS011;10642;50.682;18.510;2023-02-04T12:51:10;8.63;;;4.60;;
20966;SDS011;10642;50.682;18.510;2023-02-04T12:53:37;10.53;;;4.93;;
20966;SDS011;10642;50.682;18.510;2023-02-04T12:56:04;12.27;;;5.30;;
20966;SDS011;10642;50.682;18.510;2023-02-04T12:58:31;10.20;;;4.97;;
20966;SDS011;10642;50.682;18.510;2023-02-04T13:00:58;9.90;;;5.97;;
20966;SDS011;10642;50.682;18.510;2023-02-04T13:03:26;16.90;;;8.77;;
20966;SDS011;10642;50.682;18.510;2023-02-04T13:05:54;21.37;;;12.53;;
20966;SDS011;10642;50.682;18.510;2023-02-04T13:08:20;10.77;;;5.60;;
20966;SDS011;10642;50.682;18.510;2023-02-04T13:10:47;12.07;;;6.63;;
20966;SDS011;10642;50.682;18.510;2023-02-04T13:13:18;10.27;;;5.63;;
20966;SDS011;10642;50.682;18.510;2023-02-04T13:15:45;8.37;;;5.37;;
20966;SDS011;10642;50.682;18.510;2023-02-04T13:18:13;18.20;;;9.97;;
20966;SDS011;10642;50.682;18.510;2023-02-04T13:20:42;16.10;;;7.30;;
20966;SDS011;10642;50.682;18.510;2023-02-04T13:23:09;30.60;;;12.07;;
20966;SDS011;10642;50.682;18.510;2023-02-04T13:25:36;12.03;;;6.57;;
20966;SDS011;10642;50.682;18.510;2023-02-04T13:28:03;11.30;;;5.93;;
20966;SDS011;10642;50.682;18.510;2023-02-04T13:30:30;8.33;;;4.77;;
20966;SDS011;10642;50.682;18.510;2023-02-04T13:32:57;12.50;;;5.00;;
20966;SDS011;10642;50.682;18.510;2023-02-04T13:35:25;36.30;;;16.67;;
20966;SDS011;10642;50.682;18.510;2023-02-04T13:37:52;11.13;;;5.60;;
20966;SDS011;10642;50.682;18.510;2023-02-04T13:40:21;12.93;;;6.60;;
20966;SDS011;10642;50.682;18.510;2023-02-04T13:42:48;13.37;;;5.40;;
20966;SDS011;10642;50.682;18.510;2023-02-04T13:45:15;13.43;;;6.67;;
20966;SDS011;10642;50.682;18.510;2023-02-04T13:47:44;21.83;;;9.93;;
20966;SDS011;10642;50.682;18.510;2023-02-04T13:50:14;17.40;;;7.77;;
20966;SDS011;10642;50.682;18.510;2023-02-04T13:52:41;16.60;;;6.87;;
20966;SDS011;10642;50.682;18.510;2023-02-04T13:55:08;12.67;;;6.30;;
20966;SDS011;10642;50.682;18.510;2023-02-04T13:57:35;12.67;;;5.77;;
20966;SDS011;10642;50.682;18.510;2023-02-04T14:00:03;7.77;;;3.70;;
20966;SDS011;10642;50.682;18.510;2023-02-04T14:02:37;8.30;;;3.53;;
20966;SDS011;10642;50.682;18.510;2023-02-04T14:05:04;21.33;;;8.50;;
20966;SDS011;10642;50.682;18.510;2023-02-04T14:07:32;18.50;;;7.80;;
20966;SDS011;10642;50.682;18.510;2023-02-04T14:09:59;8.83;;;4.40;;
20966;SDS011;10642;50.682;18.510;2023-02-04T14:12:26;20.87;;;9.47;;
20966;SDS011;10642;50.682;18.510;2023-02-04T14:14:53;22.27;;;10.40;;
20966;SDS011;10642;50.682;18.510;2023-02-04T14:17:20;20.30;;;7.83;;
20966;SDS011;10642;50.682;18.510;2023-02-04T14:19:47;18.93;;;7.07;;
20966;SDS011;10642;50.682;18.510;2023-02-04T14:22:13;17.07;;;6.73;;
20966;SDS011;10642;50.682;18.510;2023-02-04T14:24:40;11.20;;;4.73;;
20966;SDS011;10642;50.682;18.510;2023-02-04T14:27:08;18.80;;;7.83;;
20966;SDS011;10642;50.682;18.510;2023-02-04T14:29:35;24.03;;;9.27;;
20966;SDS011;10642;50.682;18.510;2023-02-04T14:32:02;23.83;;;9.00;;
20966;SDS011;10642;50.682;18.510;2023-02-04T14:34:29;10.87;;;5.00;;
20966;SDS011;10642;50.682;18.510;2023-02-04T14:36:57;15.90;;;8.63;;
20966;SDS011;10642;50.682;18.510;2023-02-04T14:39:24;11.93;;;6.00;;
20966;SDS011;10642;50.682;18.510;2023-02-04T14:41:51;11.50;;;5.63;;
20966;SDS011;10642;50.682;18.510;2023-02-04T14:44:18;10.53;;;4.63;;
20966;SDS011;10642;50.682;18.510;2023-02-04T14:46:46;10.67;;;4.77;;
20966;SDS011;10642;50.682;18.510;2023-02-04T14:49:14;9.90;;;5.30;;